sensor_id;sensor_type;location;lat;lon;timestamp;P1;durP1;ratioP1;P2;durP2;ratioP2
51866;SDS011;52862;52.504;13.480;2023-02-15T00:00:13;71.50;;;29.07;;
51866;SDS011;52862;52.504;13.480;2023-02-15T00:05:37;72.03;;;31.43;;
51866;SDS011;52862;52.504;13.480;2023-02-15T00:08:04;75.20;;;31.40;;
51866;SDS011;52862;52.504;13.480;2023-02-15T00:10:31;70.40;;;31.47;;
51866;SDS011;52862;52.504;13.480;2023-02-15T00:12:59;64.47;;;30.07;;
51866;SDS011;52862;52.504;13.480;2023-02-15T00:15:26;70.27;;;31.00;;
51866;SDS011;52862;52.504;13.480;2023-02-15T00:17:53;71.07;;;30.00;;
51866;SDS011;52862;52.504;13.480;2023-02-15T00:20:19;75.77;;;30.60;;
51866;SDS011;52862;52.504;13.480;2023-02-15T00:22:47;75.40;;;31.33;;
51866;SDS011;52862;52.504;13.480;2023-02-15T00:25:15;74.63;;;31.97;;
51866;SDS011;52862;52.504;13.480;2023-02-15T00:27:41;75.27;;;32.23;;
51866;SDS011;52862;52.504;13.480;2023-02-15T00:30:09;72.20;;;32.33;;
51866;SDS011;52862;52.504;13.480;2023-02-15T00:32:36;75.53;;;30.13;;
51866;SDS011;52862;52.504;13.480;2023-02-15T00:35:03;67.40;;;30.83;;
51866;SDS011;52862;52.504;13.480;2023-02-15T00:37:30;75.93;;;32.80;;
51866;SDS011;52862;52.504;13.480;2023-02-15T00:39:57;74.17;;;32.63;;
51866;SDS011;52862;52.504;13.480;2023-02-15T00:42:24;68.30;;;31.97;;
51866;SDS011;52862;52.504;13.480;2023-02-15T00:44:51;73.00;;;32.27;;
51866;SDS011;52862;52.504;13.480;2023-02-15T00:47:17;75.07;;;33.67;;
51866;SDS011;52862;52.504;13.480;2023-02-15T00:49:44;74.50;;;32.77;;
51866;SDS011;52862;52.504;13.480;2023-02-15T00:52:10;68.03;;;31.43;;
51866;SDS011;52862;52.504;13.480;2023-02-15T00:54:37;70.37;;;31.37;;
51866;SDS011;52862;52.504;13.480;2023-02-15T00:57:04;70.93;;;32.77;;
51866;SDS011;52862;52.504;13.480;2023-02-15T00:59:31;71.57;;;31.13;;
51866;SDS011;52862;52.504;13.480;2023-02-15T01:01:58;75.67;;;31.60;;
51866;SDS011;52862;52.504;13.480;2023-02-15T01:04:25;77.60;;;32.33;;
51866;SDS011;52862;52.504;13.480;2023-02-15T01:06:51;76.83;;;33.43;;
51866;SDS011;52862;52.504;13.480;2023-02-15T01:09:18;75.97;;;32.20;;
51866;SDS011;52862;52.504;13.480;2023-02-15T01:11:45;88.87;;;33.43;;
51866;SDS011;52862;52.504;13.480;2023-02-15T01:14:11;70.40;;;33.17;;
51866;SDS011;52862;52.504;13.480;2023-02-15T01:16:40;71.47;;;32.30;;
51866;SDS011;52862;52.504;13.480;2023-02-15T01:19:07;81.10;;;33.07;;
51866;SDS011;52862;52.504;13.480;2023-02-15T01:21:34;72.90;;;32.83;;
51866;SDS011;52862;52.504;13.480;2023-02-15T01:24:00;76.60;;;33.17;;
51866;SDS011;52862;52.504;13.480;2023-02-15T01:26:27;77.60;;;33.03;;
51866;SDS011;52862;52.504;13.480;2023-02-15T01:28:54;79.43;;;31.70;;
51866;SDS011;52862;52.504;13.480;2023-02-15T01:31:22;82.40;;;33.30;;
51866;SDS011;52862;52.504;13.480;2023-02-15T01:33:50;83.60;;;35.70;;
51866;SDS011;52862;52.504;13.480;2023-02-15T01:36:16;74.00;;;33.37;;
51866;SDS011;52862;52.504;13.480;2023-02-15T01:38:43;82.40;;;33.63;;
51866;SDS011;52862;52.504;13.480;2023-02-15T01:41:10;73.73;;;32.43;;
51866;SDS011;52862;52.504;13.480;2023-02-15T01:43:49;80.53;;;34.60;;
51866;SDS011;52862;52.504;13.480;2023-02-15T01:46:19;71.23;;;31.63;;
51866;SDS011;52862;52.504;13.480;2023-02-15T01:48:52;78.10;;;32.87;;
51866;SDS011;52862;52.504;13.480;2023-02-15T01:51:23;76.53;;;32.37;;
51866;SDS011;52862;52.504;13.480;2023-02-15T01:53:53;73.80;;;33.03;;
51866;SDS011;52862;52.504;13.480;2023-02-15T01:56:24;73.97;;;33.53;;
51866;SDS011;52862;52.504;13.480;2023-02-15T01:58:53;83.43;;;35.00;;
51866;SDS011;52862;52.504;13.480;2023-02-15T02:01:23;86.50;;;35.40;;
51866;SDS011;52862;52.504;13.480;2023-02-15T02:03:55;78.63;;;33.07;;
51866;SDS011;52862;52.504;13.480;2023-02-15T02:06:26;79.40;;;34.73;;
51866;SDS011;52862;52.504;13.480;2023-02-15T02:08:53;93.50;;;37.07;;
51866;SDS011;52862;52.504;13.480;2023-02-15T02:11:20;88.37;;;36.23;;
51866;SDS011;52862;52.504;13.480;2023-02-15T02:13:47;85.00;;;36.03;;
51866;SDS011;52862;52.504;13.480;2023-02-15T02:16:18;93.67;;;38.10;;
51866;SDS011;52862;52.504;13.480;2023-02-15T02:18:51;91.67;;;38.83;;
51866;SDS011;52862;52.504;13.480;2023-02-15T02:27:29;106.63;;;42.33;;
51866;SDS011;52862;52.504;13.480;2023-02-15T02:33:18;109.77;;;42.43;;
51866;SDS011;52862;52.504;13.480;2023-02-15T02:36:05;118.10;;;44.03;;
51866;SDS011;52862;52.504;13.480;2023-02-15T02:41:50;124.43;;;44.90;;
51866;SDS011;52862;52.504;13.480;2023-02-15T02:44:22;111.63;;;43.53;;
51866;SDS011;52862;52.504;13.480;2023-02-15T02:46:52;112.07;;;44.67;;
51866;SDS011;52862;52.504;13.480;2023-02-15T02:49:31;115.00;;;44.13;;
51866;SDS011;52862;52.504;13.480;2023-02-15T02:51:58;113.17;;;43.53;;
51866;SDS011;52862;52.504;13.480;2023-02-15T02:54:25;116.03;;;45.07;;
51866;SDS011;52862;52.504;13.480;2023-02-15T02:56:53;133.27;;;46.00;;
51866;SDS011;52862;52.504;13.480;2023-02-15T02:59:23;133.67;;;47.67;;
51866;SDS011;52862;52.504;13.480;2023-02-15T03:01:54;134.07;;;48.17;;
51866;SDS011;52862;52.504;13.480;2023-02-15T03:04:26;146.03;;;48.07;;
51866;SDS011;52862;52.504;13.480;2023-02-15T03:06:58;136.10;;;47.53;;
51866;SDS011;52862;52.504;13.480;2023-02-15T03:09:27;131.90;;;49.33;;
51866;SDS011;52862;52.504;13.480;2023-02-15T03:12:07;137.90;;;48.53;;
51866;SDS011;52862;52.504;13.480;2023-02-15T03:14:35;133.37;;;47.43;;
51866;SDS011;52862;52.504;13.480;2023-02-15T03:17:02;132.90;;;48.90;;
51866;SDS011;52862;52.504;13.480;2023-02-15T03:19:31;127.10;;;46.27;;
51866;SDS011;52862;52.504;13.480;2023-02-15T03:22:03;126.13;;;46.57;;
51866;SDS011;52862;52.504;13.480;2023-02-15T03:24:35;140.10;;;47.43;;
51866;SDS011;52862;52.504;13.480;2023-02-15T03:27:06;149.33;;;47.03;;
51866;SDS011;52862;52.504;13.480;2023-02-15T03:29:37;130.20;;;45.90;;
51866;SDS011;52862;52.504;13.480;2023-02-15T03:32:05;136.80;;;47.53;;
51866;SDS011;52862;52.504;13.480;2023-02-15T03:34:35;136.37;;;46.97;;
51866;SDS011;52862;52.504;13.480;2023-02-15T03:37:04;133.03;;;47.33;;
51866;SDS011;52862;52.504;13.480;2023-02-15T03:39:38;131.67;;;48.40;;
51866;SDS011;52862;52.504;13.480;2023-02-15T03:42:11;131.73;;;47.23;;
51866;SDS011;52862;52.504;13.480;2023-02-15T03:44:46;135.17;;;49.87;;
51866;SDS011;52862;52.504;13.480;2023-02-15T03:47:20;123.53;;;46.33;;
51866;SDS011;52862;52.504;13.480;2023-02-15T03:49:52;129.47;;;46.47;;
51866;SDS011;52862;52.504;13.480;2023-02-15T03:52:22;126.17;;;44.87;;
51866;SDS011;52862;52.504;13.480;2023-02-15T03:54:51;113.50;;;43.30;;
51866;SDS011;52862;52.504;13.480;2023-02-15T03:57:20;128.93;;;47.50;;
51866;SDS011;52862;52.504;13.480;2023-02-15T04:00:09;127.13;;;45.97;;
51866;SDS011;52862;52.504;13.480;2023-02-15T04:03:11;120.90;;;44.03;;
51866;SDS011;52862;52.504;13.480;2023-02-15T04:05:46;126.27;;;44.63;;
51866;SDS011;52862;52.504;13.480;2023-02-15T04:08:14;117.23;;;44.60;;
51866;SDS011;52862;52.504;13.480;2023-02-15T04:10:40;133.60;;;45.73;;
51866;SDS011;52862;52.504;13.480;2023-02-15T04:13:20;135.77;;;45.00;;
51866;SDS011;52862;52.504;13.480;2023-02-15T04:15:48;126.73;;;45.57;;
51866;SDS011;52862;52.504;13.480;2023-02-15T04:18:31;132.03;;;44.93;;
51866;SDS011;52862;52.504;13.480;2023-02-15T04:21:17;125.00;;;43.03;;
51866;SDS011;52862;52.504;13.480;2023-02-15T04:24:04;114.23;;;42.03;;
51866;SDS011;52862;52.504;13.480;2023-02-15T04:26:50;116.70;;;44.20;;
51866;SDS011;52862;52.504;13.480;2023-02-15T04:29:18;124.03;;;43.03;;
51866;SDS011;52862;52.504;13.480;2023-02-15T04:31:45;129.80;;;43.80;;
51866;SDS011;52862;52.504;13.480;2023-02-15T04:34:12;124.40;;;43.97;;
51866;SDS011;52862;52.504;13.480;2023-02-15T04:36:39;131.27;;;43.80;;
51866;SDS011;52862;52.504;13.480;2023-02-15T04:39:07;125.03;;;43.30;;
51866;SDS011;52862;52.504;13.480;2023-02-15T04:41:34;126.17;;;42.27;;
51866;SDS011;52862;52.504;13.480;2023-02-15T04:44:01;115.23;;;42.27;;
51866;SDS011;52862;52.504;13.480;2023-02-15T04:46:28;115.83;;;41.47;;
51866;SDS011;52862;52.504;13.480;2023-02-15T04:48:55;121.83;;;42.73;;
51866;SDS011;52862;52.504;13.480;2023-02-15T04:51:22;124.77;;;42.07;;
51866;SDS011;52862;52.504;13.480;2023-02-15T04:53:49;123.77;;;42.10;;
51866;SDS011;52862;52.504;13.480;2023-02-15T04:56:18;121.23;;;42.93;;
51866;SDS011;52862;52.504;13.480;2023-02-15T04:58:45;122.50;;;43.53;;
51866;SDS011;52862;52.504;13.480;2023-02-15T05:01:12;115.87;;;41.60;;
51866;SDS011;52862;52.504;13.480;2023-02-15T05:03:39;123.80;;;43.70;;
51866;SDS011;52862;52.504;13.480;2023-02-15T05:06:06;124.80;;;42.83;;
51866;SDS011;52862;52.504;13.480;2023-02-15T05:08:32;133.77;;;41.30;;
51866;SDS011;52862;52.504;13.480;2023-02-15T05:10:59;123.83;;;41.60;;
51866;SDS011;52862;52.504;13.480;2023-02-15T05:13:27;125.53;;;44.40;;
51866;SDS011;52862;52.504;13.480;2023-02-15T05:15:53;124.77;;;40.97;;
51866;SDS011;52862;52.504;13.480;2023-02-15T05:18:20;125.10;;;41.57;;
51866;SDS011;52862;52.504;13.480;2023-02-15T05:20:47;112.40;;;41.43;;
51866;SDS011;52862;52.504;13.480;2023-02-15T05:23:14;126.20;;;42.73;;
51866;SDS011;52862;52.504;13.480;2023-02-15T05:25:41;119.27;;;41.43;;
51866;SDS011;52862;52.504;13.480;2023-02-15T05:28:27;123.07;;;44.03;;
51866;SDS011;52862;52.504;13.480;2023-02-15T05:30:59;121.27;;;42.90;;
51866;SDS011;52862;52.504;13.480;2023-02-15T05:33:29;127.20;;;40.97;;
51866;SDS011;52862;52.504;13.480;2023-02-15T05:35:56;130.20;;;42.77;;
51866;SDS011;52862;52.504;13.480;2023-02-15T05:38:23;113.20;;;43.00;;
51866;SDS011;52862;52.504;13.480;2023-02-15T05:40:50;113.67;;;41.40;;
51866;SDS011;52862;52.504;13.480;2023-02-15T05:43:17;134.57;;;43.23;;
51866;SDS011;52862;52.504;13.480;2023-02-15T05:45:45;126.63;;;42.90;;
51866;SDS011;52862;52.504;13.480;2023-02-15T05:48:11;123.73;;;43.03;;
51866;SDS011;52862;52.504;13.480;2023-02-15T05:50:38;120.87;;;42.37;;
51866;SDS011;52862;52.504;13.480;2023-02-15T05:53:05;117.30;;;41.07;;
51866;SDS011;52862;52.504;13.480;2023-02-15T05:55:32;115.67;;;41.73;;
51866;SDS011;52862;52.504;13.480;2023-02-15T05:57:58;126.17;;;43.47;;
51866;SDS011;52862;52.504;13.480;2023-02-15T06:00:25;123.60;;;44.07;;
51866;SDS011;52862;52.504;13.480;2023-02-15T06:02:52;136.67;;;42.87;;
51866;SDS011;52862;52.504;13.480;2023-02-15T06:05:19;125.37;;;43.03;;
51866;SDS011;52862;52.504;13.480;2023-02-15T06:07:46;142.83;;;48.17;;
51866;SDS011;52862;52.504;13.480;2023-02-15T06:10:13;129.07;;;42.83;;
51866;SDS011;52862;52.504;13.480;2023-02-15T06:12:40;130.37;;;40.93;;
51866;SDS011;52862;52.504;13.480;2023-02-15T06:15:06;128.33;;;43.57;;
51866;SDS011;52862;52.504;13.480;2023-02-15T06:17:33;126.83;;;39.80;;
51866;SDS011;52862;52.504;13.480;2023-02-15T06:20:01;130.17;;;42.27;;
51866;SDS011;52862;52.504;13.480;2023-02-15T06:22:28;145.13;;;42.20;;
51866;SDS011;52862;52.504;13.480;2023-02-15T06:24:55;158.87;;;43.30;;
51866;SDS011;52862;52.504;13.480;2023-02-15T06:27:22;140.20;;;42.43;;
51866;SDS011;52862;52.504;13.480;2023-02-15T06:29:49;129.93;;;41.17;;
51866;SDS011;52862;52.504;13.480;2023-02-15T06:32:16;140.10;;;41.70;;
51866;SDS011;52862;52.504;13.480;2023-02-15T06:34:43;215.40;;;42.47;;
51866;SDS011;52862;52.504;13.480;2023-02-15T06:37:10;162.47;;;43.43;;
51866;SDS011;52862;52.504;13.480;2023-02-15T06:39:37;171.00;;;43.93;;
51866;SDS011;52862;52.504;13.480;2023-02-15T06:42:04;258.80;;;45.07;;
51866;SDS011;52862;52.504;13.480;2023-02-15T06:44:31;128.70;;;41.10;;
51866;SDS011;52862;52.504;13.480;2023-02-15T06:46:58;175.23;;;40.67;;
51866;SDS011;52862;52.504;13.480;2023-02-15T06:49:25;148.03;;;40.87;;
51866;SDS011;52862;52.504;13.480;2023-02-15T06:51:51;240.77;;;43.57;;
51866;SDS011;52862;52.504;13.480;2023-02-15T06:54:19;276.57;;;46.00;;
51866;SDS011;52862;52.504;13.480;2023-02-15T06:56:46;209.20;;;39.57;;
51866;SDS011;52862;52.504;13.480;2023-02-15T06:59:13;227.53;;;43.80;;
51866;SDS011;52862;52.504;13.480;2023-02-15T07:01:39;226.37;;;45.03;;
51866;SDS011;52862;52.504;13.480;2023-02-15T07:04:06;194.97;;;43.90;;
51866;SDS011;52862;52.504;13.480;2023-02-15T07:06:33;190.80;;;44.13;;
51866;SDS011;52862;52.504;13.480;2023-02-15T07:09:00;172.37;;;49.00;;
51866;SDS011;52862;52.504;13.480;2023-02-15T07:11:28;193.67;;;47.33;;
51866;SDS011;52862;52.504;13.480;2023-02-15T07:14:13;158.03;;;46.23;;
51866;SDS011;52862;52.504;13.480;2023-02-15T07:16:40;205.17;;;45.17;;
51866;SDS011;52862;52.504;13.480;2023-02-15T07:19:07;158.40;;;44.00;;
51866;SDS011;52862;52.504;13.480;2023-02-15T07:21:34;167.70;;;45.83;;
51866;SDS011;52862;52.504;13.480;2023-02-15T07:24:01;158.70;;;46.07;;
51866;SDS011;52862;52.504;13.480;2023-02-15T07:26:29;174.70;;;42.53;;
51866;SDS011;52862;52.504;13.480;2023-02-15T07:28:57;159.30;;;42.47;;
51866;SDS011;52862;52.504;13.480;2023-02-15T07:31:24;177.90;;;43.27;;
51866;SDS011;52862;52.504;13.480;2023-02-15T07:33:51;215.83;;;47.40;;
51866;SDS011;52862;52.504;13.480;2023-02-15T07:36:17;191.20;;;43.83;;
51866;SDS011;52862;52.504;13.480;2023-02-15T07:38:44;155.73;;;41.13;;
51866;SDS011;52862;52.504;13.480;2023-02-15T07:41:12;188.30;;;43.67;;
51866;SDS011;52862;52.504;13.480;2023-02-15T07:43:41;155.57;;;45.47;;
51866;SDS011;52862;52.504;13.480;2023-02-15T07:46:09;173.40;;;43.97;;
51866;SDS011;52862;52.504;13.480;2023-02-15T07:48:38;201.53;;;45.67;;
51866;SDS011;52862;52.504;13.480;2023-02-15T07:51:07;173.73;;;43.33;;
51866;SDS011;52862;52.504;13.480;2023-02-15T07:53:35;228.93;;;44.90;;
51866;SDS011;52862;52.504;13.480;2023-02-15T07:56:02;197.23;;;46.60;;
51866;SDS011;52862;52.504;13.480;2023-02-15T07:58:31;173.53;;;44.70;;
51866;SDS011;52862;52.504;13.480;2023-02-15T08:01:17;226.63;;;47.07;;
51866;SDS011;52862;52.504;13.480;2023-02-15T08:03:45;182.27;;;44.33;;
51866;SDS011;52862;52.504;13.480;2023-02-15T08:06:12;159.47;;;46.33;;
51866;SDS011;52862;52.504;13.480;2023-02-15T08:08:39;235.60;;;45.93;;
51866;SDS011;52862;52.504;13.480;2023-02-15T08:11:06;212.30;;;44.80;;
51866;SDS011;52862;52.504;13.480;2023-02-15T08:13:54;159.47;;;43.67;;
51866;SDS011;52862;52.504;13.480;2023-02-15T08:16:26;186.83;;;47.33;;
51866;SDS011;52862;52.504;13.480;2023-02-15T08:18:54;175.27;;;47.23;;
51866;SDS011;52862;52.504;13.480;2023-02-15T08:21:22;165.37;;;47.97;;
51866;SDS011;52862;52.504;13.480;2023-02-15T08:23:50;164.53;;;47.10;;
51866;SDS011;52862;52.504;13.480;2023-02-15T08:26:17;143.10;;;41.97;;
51866;SDS011;52862;52.504;13.480;2023-02-15T08:28:44;136.87;;;42.00;;
51866;SDS011;52862;52.504;13.480;2023-02-15T08:31:12;160.33;;;42.37;;
51866;SDS011;52862;52.504;13.480;2023-02-15T08:33:40;148.53;;;45.87;;
51866;SDS011;52862;52.504;13.480;2023-02-15T08:36:08;146.00;;;44.80;;
51866;SDS011;52862;52.504;13.480;2023-02-15T08:38:37;171.47;;;45.47;;
51866;SDS011;52862;52.504;13.480;2023-02-15T08:41:14;171.20;;;46.30;;
51866;SDS011;52862;52.504;13.480;2023-02-15T08:43:42;138.00;;;43.97;;
51866;SDS011;52862;52.504;13.480;2023-02-15T08:46:10;143.63;;;41.13;;
51866;SDS011;52862;52.504;13.480;2023-02-15T08:48:37;133.23;;;39.97;;
51866;SDS011;52862;52.504;13.480;2023-02-15T08:51:06;142.43;;;43.27;;
51866;SDS011;52862;52.504;13.480;2023-02-15T08:53:36;148.37;;;43.17;;
51866;SDS011;52862;52.504;13.480;2023-02-15T08:56:03;154.20;;;43.67;;
51866;SDS011;52862;52.504;13.480;2023-02-15T08:58:30;140.93;;;45.47;;
51866;SDS011;52862;52.504;13.480;2023-02-15T09:00:57;144.03;;;42.43;;
51866;SDS011;52862;52.504;13.480;2023-02-15T09:03:24;146.77;;;42.30;;
51866;SDS011;52862;52.504;13.480;2023-02-15T09:05:56;134.83;;;43.10;;
51866;SDS011;52862;52.504;13.480;2023-02-15T09:08:24;126.43;;;42.93;;
51866;SDS011;52862;52.504;13.480;2023-02-15T09:10:51;139.30;;;42.77;;
51866;SDS011;52862;52.504;13.480;2023-02-15T09:13:18;127.97;;;41.63;;
51866;SDS011;52862;52.504;13.480;2023-02-15T09:15:45;122.47;;;40.83;;
51866;SDS011;52862;52.504;13.480;2023-02-15T09:18:12;131.13;;;41.73;;
51866;SDS011;52862;52.504;13.480;2023-02-15T09:20:43;127.47;;;40.97;;
51866;SDS011;52862;52.504;13.480;2023-02-15T09:23:10;139.77;;;40.27;;
51866;SDS011;52862;52.504;13.480;2023-02-15T09:25:52;133.17;;;42.20;;
51866;SDS011;52862;52.504;13.480;2023-02-15T09:28:19;123.47;;;43.07;;
51866;SDS011;52862;52.504;13.480;2023-02-15T09:30:46;121.68;;;43.88;;
51866;SDS011;52862;52.504;13.480;2023-02-15T09:33:13;125.70;;;42.27;;
51866;SDS011;52862;52.504;13.480;2023-02-15T09:35:39;120.83;;;40.87;;
51866;SDS011;52862;52.504;13.480;2023-02-15T09:38:06;117.87;;;41.10;;
51866;SDS011;52862;52.504;13.480;2023-02-15T09:40:37;116.77;;;39.00;;
51866;SDS011;52862;52.504;13.480;2023-02-15T09:43:22;112.40;;;38.23;;
51866;SDS011;52862;52.504;13.480;2023-02-15T09:46:04;105.97;;;35.50;;
51866;SDS011;52862;52.504;13.480;2023-02-15T09:48:48;119.90;;;37.53;;
51866;SDS011;52862;52.504;13.480;2023-02-15T09:51:27;95.33;;;35.37;;
51866;SDS011;52862;52.504;13.480;2023-02-15T09:54:17;101.87;;;37.03;;
51866;SDS011;52862;52.504;13.480;2023-02-15T09:56:55;95.57;;;36.27;;
51866;SDS011;52862;52.504;13.480;2023-02-15T09:59:33;95.47;;;35.20;;
51866;SDS011;52862;52.504;13.480;2023-02-15T10:02:11;91.97;;;33.63;;
51866;SDS011;52862;52.504;13.480;2023-02-15T10:04:53;110.80;;;37.40;;
51866;SDS011;52862;52.504;13.480;2023-02-15T10:07:33;89.30;;;35.57;;
51866;SDS011;52862;52.504;13.480;2023-02-15T10:10:18;90.70;;;33.90;;
51866;SDS011;52862;52.504;13.480;2023-02-15T10:13:02;88.13;;;34.43;;
51866;SDS011;52862;52.504;13.480;2023-02-15T10:15:46;98.60;;;35.20;;
51866;SDS011;52862;52.504;13.480;2023-02-15T10:18:29;91.60;;;35.80;;
51866;SDS011;52862;52.504;13.480;2023-02-15T10:21:19;92.37;;;34.00;;
51866;SDS011;52862;52.504;13.480;2023-02-15T10:24:10;78.77;;;31.73;;
51866;SDS011;52862;52.504;13.480;2023-02-15T10:26:51;88.67;;;35.10;;
51866;SDS011;52862;52.504;13.480;2023-02-15T10:29:24;92.50;;;32.67;;
51866;SDS011;52862;52.504;13.480;2023-02-15T10:31:59;82.63;;;33.30;;
51866;SDS011;52862;52.504;13.480;2023-02-15T10:34:35;89.27;;;34.63;;
51866;SDS011;52862;52.504;13.480;2023-02-15T10:37:16;79.90;;;34.07;;
51866;SDS011;52862;52.504;13.480;2023-02-15T10:40:00;82.53;;;32.50;;
51866;SDS011;52862;52.504;13.480;2023-02-15T10:42:36;93.87;;;34.83;;
51866;SDS011;52862;52.504;13.480;2023-02-15T10:45:18;89.67;;;36.10;;
51866;SDS011;52862;52.504;13.480;2023-02-15T10:47:58;84.33;;;35.47;;
51866;SDS011;52862;52.504;13.480;2023-02-15T10:50:45;91.73;;;33.80;;
51866;SDS011;52862;52.504;13.480;2023-02-15T10:53:20;84.63;;;33.50;;
51866;SDS011;52862;52.504;13.480;2023-02-15T10:56:03;80.93;;;31.53;;
51866;SDS011;52862;52.504;13.480;2023-02-15T10:58:41;88.63;;;33.23;;
51866;SDS011;52862;52.504;13.480;2023-02-15T11:01:20;92.30;;;38.57;;
51866;SDS011;52862;52.504;13.480;2023-02-15T11:03:58;82.60;;;33.37;;
51866;SDS011;52862;52.504;13.480;2023-02-15T11:06:48;78.37;;;31.20;;
51866;SDS011;52862;52.504;13.480;2023-02-15T11:09:17;82.33;;;32.10;;
51866;SDS011;52862;52.504;13.480;2023-02-15T11:11:48;75.80;;;32.60;;
51866;SDS011;52862;52.504;13.480;2023-02-15T11:14:17;72.03;;;30.67;;
51866;SDS011;52862;52.504;13.480;2023-02-15T11:16:50;83.33;;;31.90;;
51866;SDS011;52862;52.504;13.480;2023-02-15T11:19:21;81.13;;;31.57;;
51866;SDS011;52862;52.504;13.480;2023-02-15T11:21:51;74.77;;;30.83;;
51866;SDS011;52862;52.504;13.480;2023-02-15T11:24:21;82.70;;;32.40;;
51866;SDS011;52862;52.504;13.480;2023-02-15T11:27:05;78.20;;;32.57;;
51866;SDS011;52862;52.504;13.480;2023-02-15T11:29:50;69.23;;;28.40;;
51866;SDS011;52862;52.504;13.480;2023-02-15T11:32:21;72.27;;;30.30;;
51866;SDS011;52862;52.504;13.480;2023-02-15T11:34:53;67.83;;;28.73;;
51866;SDS011;52862;52.504;13.480;2023-02-15T11:37:27;78.67;;;28.97;;
51866;SDS011;52862;52.504;13.480;2023-02-15T11:39:58;72.90;;;29.63;;
51866;SDS011;52862;52.504;13.480;2023-02-15T11:42:27;67.83;;;29.53;;
51866;SDS011;52862;52.504;13.480;2023-02-15T11:44:58;60.20;;;26.90;;
51866;SDS011;52862;52.504;13.480;2023-02-15T11:47:28;69.77;;;28.30;;
51866;SDS011;52862;52.504;13.480;2023-02-15T11:49:56;76.00;;;28.37;;
51866;SDS011;52862;52.504;13.480;2023-02-15T11:52:23;89.50;;;27.60;;
51866;SDS011;52862;52.504;13.480;2023-02-15T11:54:50;68.80;;;27.80;;
51866;SDS011;52862;52.504;13.480;2023-02-15T11:57:19;65.87;;;28.53;;
51866;SDS011;52862;52.504;13.480;2023-02-15T11:59:52;65.63;;;28.03;;
51866;SDS011;52862;52.504;13.480;2023-02-15T12:02:24;62.60;;;28.30;;
51866;SDS011;52862;52.504;13.480;2023-02-15T12:04:53;72.60;;;27.17;;
51866;SDS011;52862;52.504;13.480;2023-02-15T12:07:25;61.80;;;25.20;;
51866;SDS011;52862;52.504;13.480;2023-02-15T12:09:59;66.40;;;27.63;;
51866;SDS011;52862;52.504;13.480;2023-02-15T12:12:30;68.53;;;28.10;;
51866;SDS011;52862;52.504;13.480;2023-02-15T12:14:59;62.27;;;26.47;;
51866;SDS011;52862;52.504;13.480;2023-02-15T12:17:27;77.40;;;26.80;;
51866;SDS011;52862;52.504;13.480;2023-02-15T12:19:57;61.87;;;26.90;;
51866;SDS011;52862;52.504;13.480;2023-02-15T12:22:28;65.93;;;26.80;;
51866;SDS011;52862;52.504;13.480;2023-02-15T12:24:58;65.07;;;26.23;;
51866;SDS011;52862;52.504;13.480;2023-02-15T12:27:26;59.10;;;25.47;;
51866;SDS011;52862;52.504;13.480;2023-02-15T12:29:56;59.97;;;26.27;;
51866;SDS011;52862;52.504;13.480;2023-02-15T12:32:25;56.13;;;26.10;;
51866;SDS011;52862;52.504;13.480;2023-02-15T12:34:55;63.27;;;26.33;;
51866;SDS011;52862;52.504;13.480;2023-02-15T12:37:27;52.87;;;24.77;;
51866;SDS011;52862;52.504;13.480;2023-02-15T12:39:58;51.70;;;24.80;;
51866;SDS011;52862;52.504;13.480;2023-02-15T12:42:26;58.63;;;25.03;;
51866;SDS011;52862;52.504;13.480;2023-02-15T12:44:56;60.63;;;25.17;;
51866;SDS011;52862;52.504;13.480;2023-02-15T12:47:24;50.67;;;22.93;;
51866;SDS011;52862;52.504;13.480;2023-02-15T12:50:07;53.23;;;24.83;;
51866;SDS011;52862;52.504;13.480;2023-02-15T12:52:42;59.90;;;26.23;;
51866;SDS011;52862;52.504;13.480;2023-02-15T12:55:11;47.93;;;23.40;;
51866;SDS011;52862;52.504;13.480;2023-02-15T12:57:44;58.03;;;24.37;;
51866;SDS011;52862;52.504;13.480;2023-02-15T13:02:57;62.67;;;24.27;;
51866;SDS011;52862;52.504;13.480;2023-02-15T13:05:26;57.33;;;22.53;;
51866;SDS011;52862;52.504;13.480;2023-02-15T13:07:58;56.43;;;23.90;;
51866;SDS011;52862;52.504;13.480;2023-02-15T13:10:27;53.97;;;23.40;;
51866;SDS011;52862;52.504;13.480;2023-02-15T13:12:57;47.20;;;24.03;;
51866;SDS011;52862;52.504;13.480;2023-02-15T13:15:25;51.30;;;23.83;;
51866;SDS011;52862;52.504;13.480;2023-02-15T13:17:55;41.43;;;23.20;;
51866;SDS011;52862;52.504;13.480;2023-02-15T13:20:23;46.30;;;23.20;;
51866;SDS011;52862;52.504;13.480;2023-02-15T13:22:54;48.93;;;21.47;;
51866;SDS011;52862;52.504;13.480;2023-02-15T13:25:28;45.63;;;22.83;;
51866;SDS011;52862;52.504;13.480;2023-02-15T13:27:57;49.13;;;24.40;;
51866;SDS011;52862;52.504;13.480;2023-02-15T13:30:28;51.63;;;26.00;;
51866;SDS011;52862;52.504;13.480;2023-02-15T13:33:02;44.50;;;22.50;;
51866;SDS011;52862;52.504;13.480;2023-02-15T13:35:34;48.70;;;24.93;;
51866;SDS011;52862;52.504;13.480;2023-02-15T13:38:16;40.07;;;22.87;;
51866;SDS011;52862;52.504;13.480;2023-02-15T13:41:22;42.87;;;22.50;;
51866;SDS011;52862;52.504;13.480;2023-02-15T13:43:56;40.33;;;21.30;;
51866;SDS011;52862;52.504;13.480;2023-02-15T13:46:35;53.43;;;22.03;;
51866;SDS011;52862;52.504;13.480;2023-02-15T13:49:17;43.63;;;22.10;;
51866;SDS011;52862;52.504;13.480;2023-02-15T13:51:58;40.63;;;20.10;;
51866;SDS011;52862;52.504;13.480;2023-02-15T13:54:44;43.17;;;20.93;;
51866;SDS011;52862;52.504;13.480;2023-02-15T13:57:34;41.37;;;21.57;;
51866;SDS011;52862;52.504;13.480;2023-02-15T14:00:18;36.90;;;20.47;;
51866;SDS011;52862;52.504;13.480;2023-02-15T14:03:02;45.60;;;21.27;;
51866;SDS011;52862;52.504;13.480;2023-02-15T14:05:56;47.87;;;20.80;;
51866;SDS011;52862;52.504;13.480;2023-02-15T14:08:43;40.17;;;20.87;;
51866;SDS011;52862;52.504;13.480;2023-02-15T14:11:21;40.50;;;20.93;;
51866;SDS011;52862;52.504;13.480;2023-02-15T14:14:01;40.23;;;21.13;;
51866;SDS011;52862;52.504;13.480;2023-02-15T14:16:58;46.93;;;21.47;;
51866;SDS011;52862;52.504;13.480;2023-02-15T14:19:35;46.80;;;20.53;;
51866;SDS011;52862;52.504;13.480;2023-02-15T14:22:07;48.77;;;21.30;;
51866;SDS011;52862;52.504;13.480;2023-02-15T14:24:40;56.60;;;21.17;;
51866;SDS011;52862;52.504;13.480;2023-02-15T14:27:15;54.97;;;22.80;;
51866;SDS011;52862;52.504;13.480;2023-02-15T14:29:51;45.93;;;23.67;;
51866;SDS011;52862;52.504;13.480;2023-02-15T14:32:23;44.53;;;22.47;;
51866;SDS011;52862;52.504;13.480;2023-02-15T14:34:56;43.10;;;22.83;;
51866;SDS011;52862;52.504;13.480;2023-02-15T14:37:28;56.10;;;22.13;;
51866;SDS011;52862;52.504;13.480;2023-02-15T14:40:06;54.17;;;22.03;;
51866;SDS011;52862;52.504;13.480;2023-02-15T14:43:04;44.60;;;20.90;;
51866;SDS011;52862;52.504;13.480;2023-02-15T14:45:38;47.87;;;21.63;;